sensor_id;sensor_type;location;lat;lon;timestamp;P1;durP1;ratioP1;P2;durP2;ratioP2
317;SDS011;146;53.448;10.228;2022-10-16T00:00:53;8.87;;;6.33;;
317;SDS011;146;53.448;10.228;2022-10-16T00:03:24;7.13;;;6.50;;
317;SDS011;146;53.448;10.228;2022-10-16T00:05:51;5.90;;;5.40;;
317;SDS011;146;53.448;10.228;2022-10-16T00:08:18;6.07;;;5.40;;
317;SDS011;146;53.448;10.228;2022-10-16T00:10:47;7.40;;;6.07;;
317;SDS011;146;53.448;10.228;2022-10-16T00:13:23;7.60;;;6.90;;
317;SDS011;146;53.448;10.228;2022-10-16T00:15:50;6.50;;;5.87;;
317;SDS011;146;53.448;10.228;2022-10-16T00:18:25;6.13;;;5.53;;
317;SDS011;146;53.448;10.228;2022-10-16T00:20:52;6.83;;;6.13;;
317;SDS011;146;53.448;10.228;2022-10-16T00:23:19;6.30;;;5.70;;
317;SDS011;146;53.448;10.228;2022-10-16T00:25:53;7.00;;;6.00;;
317;SDS011;146;53.448;10.228;2022-10-16T00:28:27;5.87;;;5.37;;
317;SDS011;146;53.448;10.228;2022-10-16T00:30:54;5.63;;;5.20;;
317;SDS011;146;53.448;10.228;2022-10-16T00:33:21;6.23;;;5.60;;
317;SDS011;146;53.448;10.228;2022-10-16T00:35:52;5.57;;;5.07;;
317;SDS011;146;53.448;10.228;2022-10-16T00:38:19;8.13;;;6.10;;
317;SDS011;146;53.448;10.228;2022-10-16T00:40:55;5.17;;;4.67;;
317;SDS011;146;53.448;10.228;2022-10-16T00:43:33;6.43;;;5.13;;
317;SDS011;146;53.448;10.228;2022-10-16T00:46:04;6.07;;;5.40;;
317;SDS011;146;53.448;10.228;2022-10-16T00:48:36;6.23;;;5.63;;
317;SDS011;146;53.448;10.228;2022-10-16T00:51:05;6.23;;;5.70;;
317;SDS011;146;53.448;10.228;2022-10-16T00:53:33;5.80;;;5.30;;
317;SDS011;146;53.448;10.228;2022-10-16T00:56:01;5.60;;;5.17;;
317;SDS011;146;53.448;10.228;2022-10-16T00:58:31;5.43;;;4.93;;
317;SDS011;146;53.448;10.228;2022-10-16T01:00:58;5.43;;;4.93;;
317;SDS011;146;53.448;10.228;2022-10-16T01:03:26;5.50;;;5.00;;
317;SDS011;146;53.448;10.228;2022-10-16T01:05:58;6.73;;;5.80;;
317;SDS011;146;53.448;10.228;2022-10-16T01:08:36;6.27;;;5.00;;
317;SDS011;146;53.448;10.228;2022-10-16T01:11:11;4.10;;;3.70;;
317;SDS011;146;53.448;10.228;2022-10-16T01:13:42;5.33;;;4.63;;
317;SDS011;146;53.448;10.228;2022-10-16T01:16:16;6.00;;;4.50;;
317;SDS011;146;53.448;10.228;2022-10-16T01:18:53;5.17;;;3.90;;
317;SDS011;146;53.448;10.228;2022-10-16T01:21:28;3.90;;;3.60;;
317;SDS011;146;53.448;10.228;2022-10-16T01:24:02;4.83;;;4.40;;
317;SDS011;146;53.448;10.228;2022-10-16T01:26:36;8.33;;;3.80;;
317;SDS011;146;53.448;10.228;2022-10-16T01:29:15;4.20;;;3.80;;
317;SDS011;146;53.448;10.228;2022-10-16T01:31:49;3.30;;;3.00;;
317;SDS011;146;53.448;10.228;2022-10-16T01:34:22;3.40;;;3.10;;
317;SDS011;146;53.448;10.228;2022-10-16T01:36:55;2.97;;;2.53;;
317;SDS011;146;53.448;10.228;2022-10-16T01:39:35;3.00;;;2.70;;
317;SDS011;146;53.448;10.228;2022-10-16T01:42:11;4.03;;;2.90;;
317;SDS011;146;53.448;10.228;2022-10-16T01:44:42;3.00;;;2.80;;
317;SDS011;146;53.448;10.228;2022-10-16T01:47:12;5.60;;;2.97;;
317;SDS011;146;53.448;10.228;2022-10-16T01:49:44;3.23;;;2.87;;
317;SDS011;146;53.448;10.228;2022-10-16T01:52:14;2.90;;;2.70;;
317;SDS011;146;53.448;10.228;2022-10-16T01:54:46;3.40;;;2.37;;
317;SDS011;146;53.448;10.228;2022-10-16T01:57:19;2.80;;;2.60;;
317;SDS011;146;53.448;10.228;2022-10-16T01:59:54;3.80;;;2.80;;
317;SDS011;146;53.448;10.228;2022-10-16T02:02:25;2.57;;;2.40;;
317;SDS011;146;53.448;10.228;2022-10-16T02:04:55;2.97;;;2.70;;
317;SDS011;146;53.448;10.228;2022-10-16T02:07:25;2.90;;;2.70;;
317;SDS011;146;53.448;10.228;2022-10-16T02:09:51;4.07;;;2.80;;
317;SDS011;146;53.448;10.228;2022-10-16T02:12:24;3.50;;;3.20;;
317;SDS011;146;53.448;10.228;2022-10-16T02:14:55;2.27;;;2.17;;
317;SDS011;146;53.448;10.228;2022-10-16T02:17:22;2.53;;;2.43;;
317;SDS011;146;53.448;10.228;2022-10-16T02:19:50;2.23;;;2.13;;
317;SDS011;146;53.448;10.228;2022-10-16T02:22:21;2.83;;;2.63;;
317;SDS011;146;53.448;10.228;2022-10-16T02:25:02;1.87;;;1.77;;
317;SDS011;146;53.448;10.228;2022-10-16T02:27:40;2.70;;;2.50;;
317;SDS011;146;53.448;10.228;2022-10-16T02:30:13;3.27;;;2.60;;
317;SDS011;146;53.448;10.228;2022-10-16T02:32:54;3.00;;;2.80;;
317;SDS011;146;53.448;10.228;2022-10-16T02:35:24;3.63;;;2.63;;
317;SDS011;146;53.448;10.228;2022-10-16T02:37:52;5.93;;;2.40;;
317;SDS011;146;53.448;10.228;2022-10-16T02:40:20;2.40;;;2.20;;
317;SDS011;146;53.448;10.228;2022-10-16T02:42:49;2.37;;;1.90;;
317;SDS011;146;53.448;10.228;2022-10-16T02:45:18;2.57;;;2.37;;
317;SDS011;146;53.448;10.228;2022-10-16T02:47:45;9.77;;;2.50;;
317;SDS011;146;53.448;10.228;2022-10-16T02:50:12;2.20;;;2.00;;
317;SDS011;146;53.448;10.228;2022-10-16T02:52:39;2.97;;;2.67;;
317;SDS011;146;53.448;10.228;2022-10-16T02:55:06;2.93;;;2.00;;
317;SDS011;146;53.448;10.228;2022-10-16T02:57:34;3.10;;;2.80;;
317;SDS011;146;53.448;10.228;2022-10-16T03:00:02;5.50;;;2.17;;
317;SDS011;146;53.448;10.228;2022-10-16T03:02:31;2.23;;;2.13;;
317;SDS011;146;53.448;10.228;2022-10-16T03:04:58;1.77;;;1.67;;
317;SDS011;146;53.448;10.228;2022-10-16T03:07:25;2.30;;;1.80;;
317;SDS011;146;53.448;10.228;2022-10-16T03:09:51;3.00;;;1.87;;
317;SDS011;146;53.448;10.228;2022-10-16T03:12:19;2.37;;;1.97;;
317;SDS011;146;53.448;10.228;2022-10-16T03:14:46;3.70;;;1.93;;
317;SDS011;146;53.448;10.228;2022-10-16T03:17:13;3.50;;;2.07;;
317;SDS011;146;53.448;10.228;2022-10-16T03:19:43;3.00;;;2.07;;
317;SDS011;146;53.448;10.228;2022-10-16T03:22:10;1.90;;;1.70;;
317;SDS011;146;53.448;10.228;2022-10-16T03:24:37;2.60;;;2.17;;
317;SDS011;146;53.448;10.228;2022-10-16T03:27:04;2.40;;;1.63;;
317;SDS011;146;53.448;10.228;2022-10-16T03:29:31;1.90;;;1.80;;
317;SDS011;146;53.448;10.228;2022-10-16T03:32:01;1.70;;;1.60;;
317;SDS011;146;53.448;10.228;2022-10-16T03:34:28;2.43;;;1.80;;
317;SDS011;146;53.448;10.228;2022-10-16T03:36:57;2.13;;;1.57;;
317;SDS011;146;53.448;10.228;2022-10-16T03:39:23;1.80;;;1.70;;
317;SDS011;146;53.448;10.228;2022-10-16T03:41:50;3.90;;;1.80;;
317;SDS011;146;53.448;10.228;2022-10-16T03:44:17;1.90;;;1.50;;
317;SDS011;146;53.448;10.228;2022-10-16T03:46:44;1.90;;;1.70;;
317;SDS011;146;53.448;10.228;2022-10-16T03:49:10;2.37;;;1.70;;
317;SDS011;146;53.448;10.228;2022-10-16T03:51:37;2.17;;;1.37;;
317;SDS011;146;53.448;10.228;2022-10-16T03:54:06;1.77;;;1.67;;
317;SDS011;146;53.448;10.228;2022-10-16T03:56:33;1.70;;;1.60;;
317;SDS011;146;53.448;10.228;2022-10-16T03:59:09;1.90;;;1.43;;
317;SDS011;146;53.448;10.228;2022-10-16T04:01:38;9.37;;;2.97;;
317;SDS011;146;53.448;10.228;2022-10-16T04:04:08;2.10;;;1.47;;
317;SDS011;146;53.448;10.228;2022-10-16T04:06:35;1.53;;;1.43;;
317;SDS011;146;53.448;10.228;2022-10-16T04:09:06;4.87;;;1.97;;
317;SDS011;146;53.448;10.228;2022-10-16T04:11:36;1.53;;;1.40;;
317;SDS011;146;53.448;10.228;2022-10-16T04:14:12;1.73;;;1.63;;
317;SDS011;146;53.448;10.228;2022-10-16T04:16:39;2.70;;;1.73;;
317;SDS011;146;53.448;10.228;2022-10-16T04:19:09;2.30;;;1.83;;
317;SDS011;146;53.448;10.228;2022-10-16T04:21:36;1.70;;;1.60;;
317;SDS011;146;53.448;10.228;2022-10-16T04:24:03;1.60;;;1.50;;
317;SDS011;146;53.448;10.228;2022-10-16T04:26:32;1.80;;;1.70;;
317;SDS011;146;53.448;10.228;2022-10-16T04:28:59;4.17;;;1.70;;
317;SDS011;146;53.448;10.228;2022-10-16T04:31:26;1.30;;;1.20;;
317;SDS011;146;53.448;10.228;2022-10-16T04:33:53;2.10;;;1.50;;
317;SDS011;146;53.448;10.228;2022-10-16T04:36:23;2.80;;;1.30;;
317;SDS011;146;53.448;10.228;2022-10-16T04:38:49;1.57;;;1.47;;
317;SDS011;146;53.448;10.228;2022-10-16T04:41:20;1.77;;;1.67;;
317;SDS011;146;53.448;10.228;2022-10-16T04:43:47;4.17;;;1.50;;
317;SDS011;146;53.448;10.228;2022-10-16T04:46:14;1.90;;;1.53;;
317;SDS011;146;53.448;10.228;2022-10-16T04:48:41;1.50;;;1.40;;
317;SDS011;146;53.448;10.228;2022-10-16T04:51:07;2.83;;;1.70;;
317;SDS011;146;53.448;10.228;2022-10-16T04:53:35;2.43;;;1.70;;
317;SDS011;146;53.448;10.228;2022-10-16T04:56:02;3.07;;;1.83;;
317;SDS011;146;53.448;10.228;2022-10-16T04:58:31;4.30;;;1.57;;
317;SDS011;146;53.448;10.228;2022-10-16T05:00:58;4.40;;;1.70;;
317;SDS011;146;53.448;10.228;2022-10-16T05:03:25;3.83;;;2.00;;
317;SDS011;146;53.448;10.228;2022-10-16T05:05:52;2.57;;;2.37;;
317;SDS011;146;53.448;10.228;2022-10-16T05:08:18;2.43;;;2.33;;
317;SDS011;146;53.448;10.228;2022-10-16T05:10:45;3.73;;;2.23;;
317;SDS011;146;53.448;10.228;2022-10-16T05:13:12;2.30;;;1.50;;
317;SDS011;146;53.448;10.228;2022-10-16T05:15:40;4.87;;;2.10;;
317;SDS011;146;53.448;10.228;2022-10-16T05:18:08;3.27;;;1.63;;
317;SDS011;146;53.448;10.228;2022-10-16T05:20:35;7.07;;;2.03;;
317;SDS011;146;53.448;10.228;2022-10-16T05:23:02;2.10;;;1.90;;
317;SDS011;146;53.448;10.228;2022-10-16T05:25:28;1.73;;;1.63;;
317;SDS011;146;53.448;10.228;2022-10-16T05:28:00;1.90;;;1.80;;
317;SDS011;146;53.448;10.228;2022-10-16T05:30:26;1.77;;;1.67;;
317;SDS011;146;53.448;10.228;2022-10-16T05:32:55;2.40;;;2.20;;
317;SDS011;146;53.448;10.228;2022-10-16T05:35:21;2.17;;;2.07;;
317;SDS011;146;53.448;10.228;2022-10-16T05:37:48;5.10;;;2.50;;
317;SDS011;146;53.448;10.228;2022-10-16T05:40:15;2.30;;;1.93;;
317;SDS011;146;53.448;10.228;2022-10-16T05:42:45;2.00;;;1.90;;
317;SDS011;146;53.448;10.228;2022-10-16T05:45:11;2.73;;;1.77;;
317;SDS011;146;53.448;10.228;2022-10-16T05:47:39;5.60;;;2.53;;
317;SDS011;146;53.448;10.228;2022-10-16T05:50:09;3.03;;;1.90;;
317;SDS011;146;53.448;10.228;2022-10-16T05:52:36;4.47;;;1.90;;
317;SDS011;146;53.448;10.228;2022-10-16T05:55:03;1.90;;;1.80;;
317;SDS011;146;53.448;10.228;2022-10-16T05:57:31;2.40;;;2.00;;
317;SDS011;146;53.448;10.228;2022-10-16T05:59:58;2.10;;;2.00;;
317;SDS011;146;53.448;10.228;2022-10-16T06:02:24;2.10;;;1.90;;
317;SDS011;146;53.448;10.228;2022-10-16T06:04:51;2.10;;;2.00;;
317;SDS011;146;53.448;10.228;2022-10-16T06:07:24;6.57;;;2.57;;
317;SDS011;146;53.448;10.228;2022-10-16T06:09:51;2.27;;;1.80;;
317;SDS011;146;53.448;10.228;2022-10-16T06:12:19;2.30;;;2.10;;
317;SDS011;146;53.448;10.228;2022-10-16T06:14:46;4.40;;;1.93;;
317;SDS011;146;53.448;10.228;2022-10-16T06:17:13;3.47;;;2.50;;
317;SDS011;146;53.448;10.228;2022-10-16T06:19:40;4.43;;;3.40;;
317;SDS011;146;53.448;10.228;2022-10-16T06:22:07;2.80;;;2.60;;
317;SDS011;146;53.448;10.228;2022-10-16T06:24:36;2.17;;;2.07;;
317;SDS011;146;53.448;10.228;2022-10-16T06:27:03;2.60;;;2.40;;
317;SDS011;146;53.448;10.228;2022-10-16T06:29:29;4.83;;;2.90;;
317;SDS011;146;53.448;10.228;2022-10-16T06:31:56;3.03;;;2.73;;
317;SDS011;146;53.448;10.228;2022-10-16T06:34:23;2.30;;;2.20;;
317;SDS011;146;53.448;10.228;2022-10-16T06:36:50;4.30;;;2.60;;
317;SDS011;146;53.448;10.228;2022-10-16T06:39:17;4.40;;;2.80;;
317;SDS011;146;53.448;10.228;2022-10-16T06:41:45;3.20;;;2.90;;
317;SDS011;146;53.448;10.228;2022-10-16T06:44:12;2.97;;;2.77;;
317;SDS011;146;53.448;10.228;2022-10-16T06:46:39;3.40;;;2.53;;
317;SDS011;146;53.448;10.228;2022-10-16T06:49:06;3.30;;;3.00;;
317;SDS011;146;53.448;10.228;2022-10-16T06:51:32;2.83;;;2.60;;
317;SDS011;146;53.448;10.228;2022-10-16T06:54:01;4.43;;;2.83;;
317;SDS011;146;53.448;10.228;2022-10-16T06:56:29;3.17;;;2.87;;
317;SDS011;146;53.448;10.228;2022-10-16T06:58:58;3.53;;;3.07;;
317;SDS011;146;53.448;10.228;2022-10-16T07:01:26;3.80;;;2.60;;
317;SDS011;146;53.448;10.228;2022-10-16T07:03:53;2.73;;;2.53;;
317;SDS011;146;53.448;10.228;2022-10-16T07:06:21;5.30;;;4.13;;
317;SDS011;146;53.448;10.228;2022-10-16T07:08:48;4.30;;;3.70;;
317;SDS011;146;53.448;10.228;2022-10-16T07:11:16;3.60;;;3.30;;
317;SDS011;146;53.448;10.228;2022-10-16T07:13:46;3.50;;;3.20;;
317;SDS011;146;53.448;10.228;2022-10-16T07:16:16;4.20;;;3.23;;
317;SDS011;146;53.448;10.228;2022-10-16T07:18:44;4.13;;;3.60;;
317;SDS011;146;53.448;10.228;2022-10-16T07:21:13;4.00;;;3.40;;
317;SDS011;146;53.448;10.228;2022-10-16T07:23:42;2.87;;;2.67;;
317;SDS011;146;53.448;10.228;2022-10-16T07:26:09;4.03;;;3.10;;
317;SDS011;146;53.448;10.228;2022-10-16T07:28:36;7.93;;;3.20;;
317;SDS011;146;53.448;10.228;2022-10-16T07:31:05;3.17;;;2.93;;
317;SDS011;146;53.448;10.228;2022-10-16T07:33:37;2.70;;;2.50;;
317;SDS011;146;53.448;10.228;2022-10-16T07:36:07;2.90;;;2.70;;
317;SDS011;146;53.448;10.228;2022-10-16T07:38:34;3.73;;;3.43;;
317;SDS011;146;53.448;10.228;2022-10-16T07:41:01;4.13;;;2.67;;
317;SDS011;146;53.448;10.228;2022-10-16T07:43:29;6.00;;;3.80;;
317;SDS011;146;53.448;10.228;2022-10-16T07:45:56;2.60;;;2.40;;
317;SDS011;146;53.448;10.228;2022-10-16T07:48:24;2.87;;;2.57;;
317;SDS011;146;53.448;10.228;2022-10-16T07:50:57;3.27;;;2.60;;
317;SDS011;146;53.448;10.228;2022-10-16T07:53:25;3.03;;;2.83;;
317;SDS011;146;53.448;10.228;2022-10-16T07:55:52;2.60;;;2.40;;
317;SDS011;146;53.448;10.228;2022-10-16T07:58:20;2.50;;;2.40;;
317;SDS011;146;53.448;10.228;2022-10-16T08:00:46;3.20;;;3.00;;
317;SDS011;146;53.448;10.228;2022-10-16T08:03:13;2.90;;;2.70;;
317;SDS011;146;53.448;10.228;2022-10-16T08:05:40;8.23;;;3.30;;
317;SDS011;146;53.448;10.228;2022-10-16T08:08:12;2.77;;;2.43;;
317;SDS011;146;53.448;10.228;2022-10-16T08:10:41;2.70;;;2.23;;
317;SDS011;146;53.448;10.228;2022-10-16T08:13:07;2.83;;;2.33;;
317;SDS011;146;53.448;10.228;2022-10-16T08:15:34;2.63;;;2.30;;
317;SDS011;146;53.448;10.228;2022-10-16T08:18:01;2.60;;;2.10;;
317;SDS011;146;53.448;10.228;2022-10-16T08:20:30;3.30;;;2.80;;
317;SDS011;146;53.448;10.228;2022-10-16T08:22:58;2.23;;;2.07;;
317;SDS011;146;53.448;10.228;2022-10-16T08:25:26;2.20;;;2.10;;
317;SDS011;146;53.448;10.228;2022-10-16T08:27:53;2.80;;;2.37;;
317;SDS011;146;53.448;10.228;2022-10-16T08:30:21;2.37;;;2.13;;
317;SDS011;146;53.448;10.228;2022-10-16T08:32:49;3.10;;;2.10;;
317;SDS011;146;53.448;10.228;2022-10-16T08:35:16;2.73;;;2.20;;
317;SDS011;146;53.448;10.228;2022-10-16T08:37:43;2.63;;;1.90;;
317;SDS011;146;53.448;10.228;2022-10-16T08:40:13;2.03;;;1.80;;
317;SDS011;146;53.448;10.228;2022-10-16T08:42:49;4.77;;;2.33;;
317;SDS011;146;53.448;10.228;2022-10-16T08:45:34;2.00;;;1.53;;
317;SDS011;146;53.448;10.228;2022-10-16T08:48:15;2.43;;;1.80;;
317;SDS011;146;53.448;10.228;2022-10-16T08:50:46;2.40;;;2.07;;
317;SDS011;146;53.448;10.228;2022-10-16T08:53:18;1.80;;;1.70;;
317;SDS011;146;53.448;10.228;2022-10-16T08:55:49;2.03;;;1.83;;
317;SDS011;146;53.448;10.228;2022-10-16T08:58:19;3.00;;;1.77;;
317;SDS011;146;53.448;10.228;2022-10-16T09:00:48;2.20;;;1.70;;
317;SDS011;146;53.448;10.228;2022-10-16T09:03:23;1.80;;;1.70;;
317;SDS011;146;53.448;10.228;2022-10-16T09:06:05;2.90;;;1.40;;
317;SDS011;146;53.448;10.228;2022-10-16T09:08:45;2.10;;;1.60;;
317;SDS011;146;53.448;10.228;2022-10-16T09:11:21;2.00;;;1.90;;
317;SDS011;146;53.448;10.228;2022-10-16T09:14:00;3.50;;;1.83;;
317;SDS011;146;53.448;10.228;2022-10-16T09:16:33;1.73;;;1.63;;
317;SDS011;146;53.448;10.228;2022-10-16T09:19:04;2.57;;;2.37;;
317;SDS011;146;53.448;10.228;2022-10-16T09:21:40;2.20;;;2.00;;
317;SDS011;146;53.448;10.228;2022-10-16T09:24:09;2.50;;;2.30;;
317;SDS011;146;53.448;10.228;2022-10-16T09:26:40;2.10;;;2.00;;
317;SDS011;146;53.448;10.228;2022-10-16T09:29:10;2.00;;;1.90;;
317;SDS011;146;53.448;10.228;2022-10-16T09:31:38;2.00;;;1.90;;
317;SDS011;146;53.448;10.228;2022-10-16T09:34:05;3.07;;;1.80;;
317;SDS011;146;53.448;10.228;2022-10-16T09:36:44;1.90;;;1.80;;
317;SDS011;146;53.448;10.228;2022-10-16T09:39:12;2.00;;;1.90;;
317;SDS011;146;53.448;10.228;2022-10-16T09:41:39;2.37;;;2.17;;
317;SDS011;146;53.448;10.228;2022-10-16T09:44:16;2.17;;;2.00;;
317;SDS011;146;53.448;10.228;2022-10-16T09:46:47;4.80;;;1.37;;
317;SDS011;146;53.448;10.228;2022-10-16T09:49:21;1.43;;;1.33;;
317;SDS011;146;53.448;10.228;2022-10-16T09:51:49;3.23;;;1.83;;
317;SDS011;146;53.448;10.228;2022-10-16T09:54:17;1.23;;;1.20;;
317;SDS011;146;53.448;10.228;2022-10-16T09:56:45;2.23;;;1.50;;
317;SDS011;146;53.448;10.228;2022-10-16T09:59:18;2.73;;;1.40;;
317;SDS011;146;53.448;10.228;2022-10-16T10:01:47;1.57;;;1.47;;
317;SDS011;146;53.448;10.228;2022-10-16T10:04:16;1.37;;;1.27;;
317;SDS011;146;53.448;10.228;2022-10-16T10:06:43;1.20;;;1.10;;
317;SDS011;146;53.448;10.228;2022-10-16T10:09:16;1.27;;;1.10;;
317;SDS011;146;53.448;10.228;2022-10-16T10:11:55;1.27;;;1.17;;
317;SDS011;146;53.448;10.228;2022-10-16T10:14:28;1.30;;;1.20;;
317;SDS011;146;53.448;10.228;2022-10-16T10:19:46;1.57;;;1.27;;
317;SDS011;146;53.448;10.228;2022-10-16T10:22:18;1.13;;;1.03;;
317;SDS011;146;53.448;10.228;2022-10-16T10:27:56;1.60;;;1.23;;
317;SDS011;146;53.448;10.228;2022-10-16T10:30:35;2.87;;;1.03;;
317;SDS011;146;53.448;10.228;2022-10-16T10:33:19;1.90;;;1.20;;
317;SDS011;146;53.448;10.228;2022-10-16T10:35:52;1.63;;;1.53;;
317;SDS011;146;53.448;10.228;2022-10-16T10:38:27;2.50;;;1.23;;
317;SDS011;146;53.448;10.228;2022-10-16T10:41:07;3.43;;;1.50;;
317;SDS011;146;53.448;10.228;2022-10-16T10:43:55;2.33;;;1.20;;
317;SDS011;146;53.448;10.228;2022-10-16T10:46:34;1.40;;;1.03;;
317;SDS011;146;53.448;10.228;2022-10-16T10:49:16;1.40;;;1.10;;
317;SDS011;146;53.448;10.228;2022-10-16T10:51:58;1.00;;;1.00;;
317;SDS011;146;53.448;10.228;2022-10-16T10:54:32;1.13;;;1.03;;
317;SDS011;146;53.448;10.228;2022-10-16T10:57:07;1.13;;;0.83;;
317;SDS011;146;53.448;10.228;2022-10-16T11:02:26;0.80;;;0.70;;
317;SDS011;146;53.448;10.228;2022-10-16T11:07:55;1.20;;;1.10;;
317;SDS011;146;53.448;10.228;2022-10-16T11:10:27;2.20;;;0.80;;
317;SDS011;146;53.448;10.228;2022-10-16T11:13:01;1.33;;;0.90;;
317;SDS011;146;53.448;10.228;2022-10-16T11:15:37;1.33;;;1.10;;
317;SDS011;146;53.448;10.228;2022-10-16T11:18:08;0.80;;;0.60;;
317;SDS011;146;53.448;10.228;2022-10-16T11:20:42;0.77;;;0.70;;
317;SDS011;146;53.448;10.228;2022-10-16T11:23:15;1.23;;;0.77;;
317;SDS011;146;53.448;10.228;2022-10-16T11:25:47;1.30;;;0.93;;
317;SDS011;146;53.448;10.228;2022-10-16T11:28:17;2.80;;;1.00;;
317;SDS011;146;53.448;10.228;2022-10-16T11:30:47;2.40;;;1.57;;
317;SDS011;146;53.448;10.228;2022-10-16T11:33:27;2.93;;;0.90;;
317;SDS011;146;53.448;10.228;2022-10-16T11:36:00;0.90;;;0.90;;
317;SDS011;146;53.448;10.228;2022-10-16T11:38:32;1.43;;;0.90;;
317;SDS011;146;53.448;10.228;2022-10-16T11:41:09;0.80;;;0.80;;
317;SDS011;146;53.448;10.228;2022-10-16T11:43:42;3.03;;;0.90;;
317;SDS011;146;53.448;10.228;2022-10-16T11:46:17;0.90;;;0.87;;
317;SDS011;146;53.448;10.228;2022-10-16T11:48:51;1.10;;;0.80;;
317;SDS011;146;53.448;10.228;2022-10-16T11:51:25;1.63;;;1.40;;
317;SDS011;146;53.448;10.228;2022-10-16T11:53:58;1.37;;;1.27;;
317;SDS011;146;53.448;10.228;2022-10-16T11:56:31;1.70;;;0.93;;
317;SDS011;146;53.448;10.228;2022-10-16T11:59:02;1.70;;;1.17;;
317;SDS011;146;53.448;10.228;2022-10-16T12:01:36;1.23;;;1.13;;
317;SDS011;146;53.448;10.228;2022-10-16T12:04:19;1.90;;;1.80;;
317;SDS011;146;53.448;10.228;2022-10-16T12:06:52;0.83;;;0.83;;
317;SDS011;146;53.448;10.228;2022-10-16T12:09:24;4.73;;;0.97;;
317;SDS011;146;53.448;10.228;2022-10-16T12:11:53;1.80;;;1.10;;
317;SDS011;146;53.448;10.228;2022-10-16T12:14:22;1.10;;;1.00;;
317;SDS011;146;53.448;10.228;2022-10-16T12:17:03;1.67;;;1.00;;
317;SDS011;146;53.448;10.228;2022-10-16T12:19:58;1.00;;;0.90;;
317;SDS011;146;53.448;10.228;2022-10-16T12:22:27;3.23;;;1.10;;
317;SDS011;146;53.448;10.228;2022-10-16T12:24:56;2.60;;;1.00;;
317;SDS011;146;53.448;10.228;2022-10-16T12:27:24;0.90;;;0.80;;
317;SDS011;146;53.448;10.228;2022-10-16T12:29:54;1.33;;;1.00;;
317;SDS011;146;53.448;10.228;2022-10-16T12:32:25;1.07;;;0.80;;
317;SDS011;146;53.448;10.228;2022-10-16T12:34:55;0.80;;;0.80;;
317;SDS011;146;53.448;10.228;2022-10-16T12:37:25;0.93;;;0.93;;
317;SDS011;146;53.448;10.228;2022-10-16T12:39:54;4.73;;;1.67;;
317;SDS011;146;53.448;10.228;2022-10-16T12:42:23;3.07;;;1.10;;
317;SDS011;146;53.448;10.228;2022-10-16T12:44:59;1.50;;;1.10;;
317;SDS011;146;53.448;10.228;2022-10-16T12:47:35;1.83;;;1.10;;
317;SDS011;146;53.448;10.228;2022-10-16T12:50:21;1.17;;;1.00;;
317;SDS011;146;53.448;10.228;2022-10-16T12:52:51;3.43;;;1.10;;
317;SDS011;146;53.448;10.228;2022-10-16T12:55:19;1.20;;;0.87;;
317;SDS011;146;53.448;10.228;2022-10-16T12:57:53;1.20;;;0.90;;
317;SDS011;146;53.448;10.228;2022-10-16T13:00:44;1.17;;;0.90;;
317;SDS011;146;53.448;10.228;2022-10-16T13:06:30;1.57;;;1.17;;
317;SDS011;146;53.448;10.228;2022-10-16T13:09:10;0.93;;;0.93;;
317;SDS011;146;53.448;10.228;2022-10-16T13:11:49;0.80;;;0.80;;
317;SDS011;146;53.448;10.228;2022-10-16T13:14:29;1.07;;;1.00;;
317;SDS011;146;53.448;10.228;2022-10-16T13:17:09;1.13;;;1.03;;
317;SDS011;146;53.448;10.228;2022-10-16T13:19:43;2.73;;;1.50;;
317;SDS011;146;53.448;10.228;2022-10-16T13:22:19;1.13;;;1.00;;
317;SDS011;146;53.448;10.228;2022-10-16T13:24:55;1.10;;;0.80;;
317;SDS011;146;53.448;10.228;2022-10-16T13:27:34;2.33;;;1.40;;
317;SDS011;146;53.448;10.228;2022-10-16T13:30:11;1.50;;;0.97;;
317;SDS011;146;53.448;10.228;2022-10-16T13:32:43;2.97;;;0.90;;
317;SDS011;146;53.448;10.228;2022-10-16T13:35:18;1.00;;;0.80;;
317;SDS011;146;53.448;10.228;2022-10-16T13:37:48;1.20;;;1.10;;
317;SDS011;146;53.448;10.228;2022-10-16T13:40:19;1.77;;;1.40;;
317;SDS011;146;53.448;10.228;2022-10-16T13:42:54;1.43;;;0.80;;
317;SDS011;146;53.448;10.228;2022-10-16T13:45:22;2.97;;;1.20;;
317;SDS011;146;53.448;10.228;2022-10-16T13:47:50;3.53;;;1.20;;
317;SDS011;146;53.448;10.228;2022-10-16T13:50:27;2.13;;;0.93;;
317;SDS011;146;53.448;10.228;2022-10-16T13:53:03;1.20;;;1.10;;
317;SDS011;146;53.448;10.228;2022-10-16T13:55:31;1.93;;;1.00;;
317;SDS011;146;53.448;10.228;2022-10-16T13:58:04;2.97;;;1.63;;
317;SDS011;146;53.448;10.228;2022-10-16T14:00:31;1.10;;;1.00;;
317;SDS011;146;53.448;10.228;2022-10-16T14:03:00;1.07;;;0.93;;
317;SDS011;146;53.448;10.228;2022-10-16T14:05:28;1.30;;;1.20;;
317;SDS011;146;53.448;10.228;2022-10-16T14:07:55;1.23;;;1.13;;
317;SDS011;146;53.448;10.228;2022-10-16T14:10:25;1.60;;;1.00;;
317;SDS011;146;53.448;10.228;2022-10-16T14:12:56;2.40;;;1.30;;
317;SDS011;146;53.448;10.228;2022-10-16T14:15:24;1.97;;;1.20;;
317;SDS011;146;53.448;10.228;2022-10-16T14:17:51;1.43;;;0.90;;
317;SDS011;146;53.448;10.228;2022-10-16T14:20:20;1.57;;;1.20;;
317;SDS011;146;53.448;10.228;2022-10-16T14:22:57;1.83;;;1.00;;
317;SDS011;146;53.448;10.228;2022-10-16T14:25:28;1.73;;;1.10;;
317;SDS011;146;53.448;10.228;2022-10-16T14:27:57;1.87;;;1.00;;
317;SDS011;146;53.448;10.228;2022-10-16T14:30:26;1.70;;;1.10;;
317;SDS011;146;53.448;10.228;2022-10-16T14:32:54;3.10;;;1.00;;
317;SDS011;146;53.448;10.228;2022-10-16T14:35:24;1.27;;;0.93;;
317;SDS011;146;53.448;10.228;2022-10-16T14:37:52;1.13;;;1.03;;
317;SDS011;146;53.448;10.228;2022-10-16T14:40:20;0.80;;;0.80;;
317;SDS011;146;53.448;10.228;2022-10-16T14:42:54;1.27;;;1.10;;
317;SDS011;146;53.448;10.228;2022-10-16T14:45:21;5.20;;;1.23;;
317;SDS011;146;53.448;10.228;2022-10-16T14:47:50;1.33;;;0.90;;
317;SDS011;146;53.448;10.228;2022-10-16T14:50:20;2.10;;;1.00;;
317;SDS011;146;53.448;10.228;2022-10-16T14:52:47;1.37;;;0.90;;
317;SDS011;146;53.448;10.228;2022-10-16T14:55:14;3.07;;;1.17;;
317;SDS011;146;53.448;10.228;2022-10-16T14:57:42;2.73;;;1.23;;
317;SDS011;146;53.448;10.228;2022-10-16T15:00:15;2.03;;;1.00;;
317;SDS011;146;53.448;10.228;2022-10-16T15:02:44;1.63;;;1.07;;
317;SDS011;146;53.448;10.228;2022-10-16T15:05:13;1.40;;;0.93;;
317;SDS011;146;53.448;10.228;2022-10-16T15:07:42;1.50;;;0.97;;
317;SDS011;146;53.448;10.228;2022-10-16T15:10:09;2.47;;;1.33;;
317;SDS011;146;53.448;10.228;2022-10-16T15:12:36;1.50;;;0.93;;
317;SDS011;146;53.448;10.228;2022-10-16T15:15:23;2.80;;;1.20;;
317;SDS011;146;53.448;10.228;2022-10-16T15:17:55;2.70;;;1.00;;
317;SDS011;146;53.448;10.228;2022-10-16T15:20:26;6.10;;;1.40;;
317;SDS011;146;53.448;10.228;2022-10-16T15:22:53;2.00;;;0.87;;
317;SDS011;146;53.448;10.228;2022-10-16T15:25:27;1.70;;;0.70;;
317;SDS011;146;53.448;10.228;2022-10-16T15:27:59;2.50;;;1.40;;
317;SDS011;146;53.448;10.228;2022-10-16T15:30:28;4.33;;;1.73;;
317;SDS011;146;53.448;10.228;2022-10-16T15:32:55;1.43;;;1.27;;
317;SDS011;146;53.448;10.228;2022-10-16T15:35:22;2.97;;;1.53;;
317;SDS011;146;53.448;10.228;2022-10-16T15:37:49;5.13;;;1.57;;
317;SDS011;146;53.448;10.228;2022-10-16T15:40:16;2.23;;;1.20;;
317;SDS011;146;53.448;10.228;2022-10-16T15:42:43;1.60;;;1.30;;
317;SDS011;146;53.448;10.228;2022-10-16T15:45:11;2.70;;;1.40;;
317;SDS011;146;53.448;10.228;2022-10-16T15:47:40;1.70;;;0.80;;
317;SDS011;146;53.448;10.228;2022-10-16T15:50:09;0.90;;;0.90;;
317;SDS011;146;53.448;10.228;2022-10-16T15:52:37;1.87;;;1.13;;
317;SDS011;146;53.448;10.228;2022-10-16T15:55:05;3.03;;;1.10;;
317;SDS011;146;53.448;10.228;2022-10-16T15:57:33;2.10;;;1.10;;
317;SDS011;146;53.448;10.228;2022-10-16T15:59:59;2.30;;;1.50;;
317;SDS011;146;53.448;10.228;2022-10-16T16:02:26;1.67;;;1.10;;
317;SDS011;146;53.448;10.228;2022-10-16T16:04:54;1.43;;;1.10;;